Time;durP1;ratioP1;P1;durP2;ratioP2;P2;SDS_P1;SDS_P2;PMS_P1;PMS_P2;Temp;Humidity;BMP_temperature;BMP_pressure;BME280_temperature;BME280_humidity;BME280_pressure;Samples;Min_cycle;Max_cycle;Signal;HPM_P1;HPM_P2
2022/11/19 00:01:50;;;;;;;11.00;7.97;;;;;11.70;100640.00;;;;5009829;28;20208;-77
2022/11/19 00:04:18;;;;;;;12.50;7.95;;;;;11.70;100649.00;;;;5010220;28;20228;-77
2022/11/19 00:06:45;;;;;;;10.18;7.20;;;;;11.70;100660.00;;;;5014944;28;20197;-77
2022/11/19 00:09:13;;;;;;;10.40;7.88;;;;;11.70;100662.00;;;;5012195;28;20193;-77
2022/11/19 00:14:26;;;;;;;11.85;7.43;;;;;11.60;100662.00;;;;5010384;28;20200;-77
2022/11/19 00:16:54;;;;;;;11.30;7.55;;;;;11.60;100666.00;;;;5009353;28;20208;-77
2022/11/19 00:19:21;;;;;;;11.50;7.00;;;;;11.60;100672.00;;;;5019023;28;20199;-77
2022/11/19 00:21:49;;;;;;;12.73;7.22;;;;;11.60;100671.00;;;;5020023;28;20201;-77
2022/11/19 00:24:17;;;;;;;11.00;7.65;;;;;11.50;100668.00;;;;5010000;28;20243;-77
2022/11/19 00:26:44;;;;;;;15.07;8.20;;;;;11.50;100675.00;;;;5028234;28;20223;-77
2022/11/19 00:29:11;;;;;;;10.10;7.15;;;;;11.50;100676.00;;;;5013804;28;20582;-77
2022/11/19 00:31:40;;;;;;;12.80;7.60;;;;;11.50;100678.00;;;;5010556;28;20227;-77
2022/11/19 00:34:07;;;;;;;11.20;6.75;;;;;11.50;100688.00;;;;5019789;28;20236;-77
2022/11/19 00:36:35;;;;;;;12.60;7.60;;;;;11.40;100686.00;;;;5009385;28;20294;-77
2022/11/19 00:39:02;;;;;;;12.90;7.93;;;;;11.40;100686.00;;;;5020900;28;20196;-77
2022/11/19 00:41:29;;;;;;;13.07;7.53;;;;;11.40;100690.00;;;;5009756;28;20189;-77
2022/11/19 00:43:57;;;;;;;13.40;6.85;;;;;11.40;100689.00;;;;5017790;28;20224;-77
2022/11/19 00:46:25;;;;;;;10.38;7.05;;;;;11.40;100683.00;;;;5009253;28;20199;-77
2022/11/19 00:48:55;;;;;;;11.80;7.93;;;;;11.30;100686.00;;;;5010017;28;20579;-77
2022/11/19 00:51:25;;;;;;;10.45;6.82;;;;;11.30;100689.00;;;;5007998;28;20331;-77
2022/11/19 00:53:52;;;;;;;10.82;6.95;;;;;11.30;100686.00;;;;5014532;28;20677;-77
2022/11/19 00:56:22;;;;;;;10.10;7.22;;;;;11.30;100683.00;;;;5018670;28;20204;-77
2022/11/19 00:58:49;;;;;;;11.90;7.20;;;;;11.30;100682.00;;;;5020125;28;20208;-77
2022/11/19 01:01:19;;;;;;;11.48;7.40;;;;;11.30;100689.00;;;;5027672;28;20199;-77
2022/11/19 01:03:46;;;;;;;9.90;6.50;;;;;11.30;100688.00;;;;5029947;28;20204;-77
2022/11/19 01:06:18;;;;;;;10.50;6.63;;;;;11.30;100690.00;;;;5029052;28;20196;-77
2022/11/19 01:08:45;;;;;;;10.27;6.80;;;;;11.30;100693.00;;;;5029120;28;20200;-77
2022/11/19 01:11:14;;;;;;;10.75;7.47;;;;;11.30;100705.00;;;;5017634;28;20557;-77
2022/11/19 01:13:42;;;;;;;10.75;7.03;;;;;11.30;100705.00;;;;5018344;28;20201;-77
2022/11/19 01:16:11;;;;;;;14.00;8.07;;;;;11.20;100702.00;;;;5024251;28;20219;-77
2022/11/19 01:18:40;;;;;;;9.93;6.75;;;;;11.20;100709.00;;;;5028665;28;20208;-77
2022/11/19 01:21:09;;;;;;;9.45;7.25;;;;;11.20;100712.00;;;;5020344;28;20193;-77
2022/11/19 01:23:39;;;;;;;11.77;7.15;;;;;11.20;100714.00;;;;5016462;28;20223;-77
2022/11/19 01:26:07;;;;;;;10.82;6.95;;;;;11.20;100712.00;;;;5009256;28;20879;-77
2022/11/19 01:28:34;;;;;;;10.57;7.25;;;;;11.20;100719.00;;;;5008666;28;20729;-77
2022/11/19 01:31:07;;;;;;;10.82;6.85;;;;;11.10;100712.00;;;;5013713;28;20204;-77
2022/11/19 01:33:35;;;;;;;10.15;7.80;;;;;11.10;100719.00;;;;5022949;28;20228;-77
2022/11/19 01:36:05;;;;;;;12.23;8.30;;;;;11.10;100718.00;;;;5028724;28;20725;-77
2022/11/19 01:38:33;;;;;;;9.65;7.40;;;;;11.10;100727.00;;;;5027821;28;20200;-77
2022/11/19 01:41:02;;;;;;;16.50;8.30;;;;;11.10;100726.00;;;;5014114;28;20208;-77
2022/11/19 01:43:46;;;;;;;10.75;7.38;;;;;10.90;100728.00;;;;5019411;28;20224;-77
2022/11/19 01:46:15;;;;;;;10.48;6.80;;;;;11.00;100737.00;;;;5028230;28;20208;-77
2022/11/19 01:48:46;;;;;;;11.35;7.30;;;;;11.00;100735.00;;;;5013709;28;20204;-77
2022/11/19 01:51:17;;;;;;;11.70;7.13;;;;;11.00;100735.00;;;;5014178;28;20268;-77
2022/11/19 01:53:46;;;;;;;13.30;7.85;;;;;11.00;100741.00;;;;5027225;28;20209;-77
2022/11/19 01:56:17;;;;;;;10.40;7.45;;;;;10.90;100734.00;;;;5025933;28;20305;-77
2022/11/19 01:58:48;;;;;;;9.55;7.28;;;;;10.90;100743.00;;;;5018431;28;20196;-77
2022/11/19 02:01:17;;;;;;;10.82;8.15;;;;;10.90;100738.00;;;;5027047;28;20204;-77
2022/11/19 02:03:45;;;;;;;12.40;8.05;;;;;10.90;100737.00;;;;5027696;28;20228;-77
2022/11/19 02:06:13;;;;;;;12.60;8.20;;;;;10.90;100732.00;;;;5027313;28;20200;-77
2022/11/19 02:08:42;;;;;;;10.65;7.45;;;;;10.90;100740.00;;;;5023494;28;20209;-77
2022/11/19 02:11:43;;;;;;;11.80;8.05;;;;;10.80;100747.00;;;;5008480;28;20204;-76
2022/11/19 02:14:25;;;;;;;11.13;7.82;;;;;10.80;100747.00;;;;5007612;28;20216;-76
2022/11/19 02:17:02;;;;;;;11.27;7.97;;;;;10.80;100747.00;;;;5007324;28;20621;-76
2022/11/19 02:20:02;;;;;;;10.15;7.40;;;;;10.80;100760.00;;;;5007585;28;20679;-77
2022/11/19 02:22:49;;;;;;;10.77;7.32;;;;;10.80;100760.00;;;;5011018;28;20279;-76
2022/11/19 02:25:32;;;;;;;10.85;7.38;;;;;10.80;100761.00;;;;5007999;28;20208;-77
2022/11/19 02:28:23;;;;;;;9.98;7.38;;;;;10.70;100761.00;;;;5018663;28;20200;-77
2022/11/19 02:30:54;;;;;;;10.73;7.70;;;;;10.80;100764.00;;;;5022531;28;20199;-76
2022/11/19 02:33:27;;;;;;;10.02;6.95;;;;;10.80;100758.00;;;;5028833;28;20247;-77
2022/11/19 02:36:00;;;;;;;12.48;8.10;;;;;10.80;100761.00;;;;5022686;28;20200;-76
2022/11/19 02:38:32;;;;;;;10.10;8.20;;;;;10.80;100762.00;;;;5023000;28;20200;-77
2022/11/19 02:41:32;;;;;;;11.35;8.30;;;;;10.80;100767.00;;;;5014173;28;20197;-77
2022/11/19 02:44:57;;;;;;;11.30;8.07;;;;;10.80;100766.00;;;;5024885;28;20708;-77
2022/11/19 02:46:52;;;;;;;11.15;7.20;;;;;10.80;100760.00;;;;5011354;28;20625;-77
2022/11/19 02:49:24;;;;;;;12.00;8.13;;;;;10.80;100763.00;;;;5011043;28;20205;-77
2022/11/19 02:51:51;;;;;;;11.98;8.65;;;;;10.80;100769.00;;;;5020920;28;20228;-77
2022/11/19 02:54:19;;;;;;;10.98;8.40;;;;;10.80;100763.00;;;;5023992;28;20207;-77
2022/11/19 02:56:51;;;;;;;12.30;8.48;;;;;10.80;100765.00;;;;5013081;28;20631;-77
2022/11/19 03:04:58;;;;;;;11.70;8.50;;;;;10.70;100762.00;;;;5010023;28;21104;-77
2022/11/19 03:07:25;;;;;;;13.55;8.88;;;;;10.70;100777.00;;;;5023121;28;20197;-77
2022/11/19 03:09:56;;;;;;;14.15;9.93;;;;;10.60;100778.00;;;;5017560;28;20207;-77
2022/11/19 03:12:28;;;;;;;12.95;9.80;;;;;10.60;100780.00;;;;5013176;28;20200;-77
2022/11/19 03:18:05;;;;;;;13.15;9.20;;;;;10.50;100782.00;;;;4997098;28;20209;-77
2022/11/19 03:20:37;;;;;;;13.32;9.20;;;;;10.60;100782.00;;;;5016214;28;20563;-76
2022/11/19 03:23:10;;;;;;;13.27;9.15;;;;;10.60;100783.00;;;;5016901;28;20655;-76
2022/11/19 03:25:42;;;;;;;14.50;9.30;;;;;10.60;100789.00;;;;5027223;28;20196;-76
2022/11/19 03:28:14;;;;;;;12.73;9.25;;;;;10.50;100784.00;;;;5026773;28;20196;-76
2022/11/19 03:30:45;;;;;;;14.05;9.60;;;;;10.60;100787.00;;;;5010272;28;20201;-77
2022/11/19 03:33:19;;;;;;;12.93;9.52;;;;;10.50;100782.00;;;;5013440;28;20713;-77
2022/11/19 03:35:49;;;;;;;15.88;11.13;;;;;10.60;100788.00;;;;5015527;28;20200;-77
2022/11/19 03:38:21;;;;;;;15.48;10.82;;;;;10.50;100791.00;;;;5015701;28;20559;-77
2022/11/19 03:40:50;;;;;;;16.60;11.25;;;;;10.50;100792.00;;;;5011514;28;20209;-77
2022/11/19 03:43:21;;;;;;;16.83;11.05;;;;;10.50;100788.00;;;;5028594;28;20208;-76
2022/11/19 03:45:50;;;;;;;14.13;10.95;;;;;10.50;100783.00;;;;5028958;28;20347;-76
2022/11/19 03:48:22;;;;;;;17.08;11.23;;;;;10.40;100794.00;;;;5010447;28;20216;-77
2022/11/19 03:50:52;;;;;;;18.08;12.00;;;;;10.40;100794.00;;;;5025056;28;20710;-76
2022/11/19 03:53:21;;;;;;;14.70;10.82;;;;;10.40;100784.00;;;;5012458;28;20200;-77
2022/11/19 03:55:53;;;;;;;15.25;11.07;;;;;10.40;100799.00;;;;5009540;28;20219;-77
2022/11/19 03:58:23;;;;;;;18.50;12.27;;;;;10.40;100805.00;;;;5017332;28;20208;-77
2022/11/19 04:00:50;;;;;;;15.32;11.50;;;;;10.40;100803.00;;;;5009376;28;20204;-76
2022/11/19 04:03:19;;;;;;;16.75;12.02;;;;;10.30;100798.00;;;;5009735;28;20200;-76
2022/11/19 04:05:47;;;;;;;15.63;11.38;;;;;10.30;100803.00;;;;5012884;28;20205;-77
2022/11/19 04:08:14;;;;;;;19.00;11.80;;;;;10.30;100812.00;;;;5011648;28;20197;-77
2022/11/19 04:10:41;;;;;;;17.17;11.30;;;;;10.30;100806.00;;;;5014848;28;20213;-76
2022/11/19 04:13:08;;;;;;;15.20;10.65;;;;;10.30;100818.00;;;;5009962;28;20201;-77
2022/11/19 04:15:36;;;;;;;15.25;11.43;;;;;10.30;100816.00;;;;5013962;28;21044;-76
2022/11/19 04:18:03;;;;;;;19.52;12.60;;;;;10.20;100834.00;;;;5013796;28;20197;-77
2022/11/19 04:20:32;;;;;;;20.10;12.55;;;;;10.20;100837.00;;;;5027134;28;20705;-76
2022/11/19 04:22:59;;;;;;;16.40;11.90;;;;;10.20;100845.00;;;;5013691;28;20566;-77
2022/11/19 04:25:26;;;;;;;16.73;12.07;;;;;10.20;100848.00;;;;5019041;28;20227;-76
2022/11/19 04:27:54;;;;;;;14.75;11.57;;;;;10.20;100851.00;;;;5013367;28;20200;-77
2022/11/19 04:30:21;;;;;;;16.63;12.13;;;;;10.10;100855.00;;;;5040958;28;20199;-77
2022/11/19 04:32:48;;;;;;;17.30;11.80;;;;;10.10;100857.00;;;;5043418;28;20230;-77
2022/11/19 04:35:17;;;;;;;17.92;11.57;;;;;10.10;100867.00;;;;5016908;28;20197;-77
2022/11/19 04:37:45;;;;;;;15.52;11.80;;;;;10.10;100871.00;;;;5009963;28;20208;-76
2022/11/19 04:40:13;;;;;;;15.45;11.63;;;;;10.00;100871.00;;;;5023628;28;20213;-76
2022/11/19 04:42:41;;;;;;;16.90;12.27;;;;;10.00;100873.00;;;;5010172;28;20212;-76
2022/11/19 04:45:09;;;;;;;16.80;10.93;;;;;10.00;100872.00;;;;5015817;28;20224;-76
2022/11/19 04:47:37;;;;;;;14.13;10.50;;;;;9.90;100879.00;;;;5028744;28;20331;-76
2022/11/19 04:50:04;;;;;;;15.35;10.75;;;;;9.90;100877.00;;;;5028466;28;20297;-76
2022/11/19 04:52:32;;;;;;;18.48;12.80;;;;;9.90;100868.00;;;;5013637;28;20197;-77
2022/11/19 04:55:00;;;;;;;16.85;10.73;;;;;9.90;100879.00;;;;5008465;28;20208;-76
2022/11/19 04:57:28;;;;;;;17.38;11.48;;;;;9.90;100884.00;;;;5010109;28;20208;-76
2022/11/19 04:59:55;;;;;;;15.82;11.38;;;;;9.90;100877.00;;;;5008777;28;20208;-76
2022/11/19 05:02:22;;;;;;;15.77;11.38;;;;;9.80;100886.00;;;;5008296;28;20204;-76
2022/11/19 05:04:49;;;;;;;15.10;11.02;;;;;9.80;100889.00;;;;5020484;28;20603;-77
2022/11/19 05:07:17;;;;;;;14.98;10.77;;;;;9.80;100888.00;;;;5015944;28;20208;-76
2022/11/19 05:09:44;;;;;;;15.10;10.90;;;;;9.70;100889.00;;;;5039262;28;20197;-77
2022/11/19 05:12:12;;;;;;;15.60;10.93;;;;;9.70;100883.00;;;;5019193;28;20834;-76
2022/11/19 05:14:40;;;;;;;14.82;10.38;;;;;9.70;100892.00;;;;5026554;28;20200;-76
2022/11/19 05:17:07;;;;;;;16.25;11.32;;;;;9.70;100898.00;;;;5025513;28;20205;-76
2022/11/19 05:19:34;;;;;;;16.92;11.13;;;;;9.70;100896.00;;;;5009236;28;20201;-76
2022/11/19 05:22:02;;;;;;;16.20;11.05;;;;;9.70;100900.00;;;;5009555;28;20204;-77
2022/11/19 05:24:29;;;;;;;16.95;11.32;;;;;9.70;100906.00;;;;5011573;28;20244;-76
2022/11/19 05:26:56;;;;;;;16.65;11.25;;;;;9.70;100903.00;;;;5011376;28;20228;-77
2022/11/19 05:29:25;;;;;;;17.67;11.60;;;;;9.60;100907.00;;;;5009578;28;20204;-76
2022/11/19 05:31:52;;;;;;;15.73;11.23;;;;;9.60;100915.00;;;;5009976;28;20201;-76
2022/11/19 05:34:19;;;;;;;14.13;10.15;;;;;9.60;100911.00;;;;5018395;28;20233;-77
2022/11/19 05:36:47;;;;;;;17.17;11.93;;;;;9.60;100898.00;;;;5028681;28;20193;-76
2022/11/19 05:39:14;;;;;;;17.85;11.48;;;;;9.60;100908.00;;;;5028906;28;20196;-77
2022/11/19 05:41:41;;;;;;;17.35;11.52;;;;;9.60;100903.00;;;;5015011;28;20200;-76
2022/11/19 05:44:08;;;;;;;16.85;11.82;;;;;9.50;100913.00;;;;5017154;28;20240;-77
2022/11/19 05:46:37;;;;;;;16.42;11.35;;;;;9.50;100917.00;;;;5010879;28;20196;-76
2022/11/19 05:49:04;;;;;;;16.80;11.70;;;;;9.50;100911.00;;;;5028980;28;20227;-77
2022/11/19 05:51:32;;;;;;;14.70;10.60;;;;;9.50;100915.00;;;;5025753;28;20227;-76
2022/11/19 05:53:59;;;;;;;17.75;11.98;;;;;9.50;100912.00;;;;5009903;28;20205;-76
2022/11/19 05:56:26;;;;;;;17.60;11.02;;;;;9.50;100914.00;;;;5012727;28;20193;-76
2022/11/19 05:58:54;;;;;;;16.13;11.07;;;;;9.50;100921.00;;;;5016643;28;20193;-77
2022/11/19 06:01:26;;;;;;;18.70;11.93;;;;;9.40;100931.00;;;;5011594;28;20428;-77
2022/11/19 06:03:54;;;;;;;15.45;10.63;;;;;9.50;100917.00;;;;5013589;28;20201;-77
2022/11/19 06:06:23;;;;;;;16.23;10.88;;;;;9.50;100923.00;;;;5025765;28;20200;-77
2022/11/19 06:08:50;;;;;;;16.33;11.10;;;;;9.50;100932.00;;;;5028292;28;20280;-77
2022/11/19 06:14:00;;;;;;;17.10;10.75;;;;;9.40;100941.00;;;;5012677;28;20214;-77
2022/11/19 06:16:28;;;;;;;17.98;11.88;;;;;9.50;100943.00;;;;5015359;28;20201;-78
2022/11/19 06:18:56;;;;;;;16.20;11.07;;;;;9.40;100946.00;;;;5027981;28;20222;-77
2022/11/19 06:21:24;;;;;;;17.75;11.75;;;;;9.50;100937.00;;;;5019667;28;20201;-77
2022/11/19 06:23:52;;;;;;;16.50;11.88;;;;;9.50;100946.00;;;;5017529;28;20209;-77
2022/11/19 06:26:23;;;;;;;17.42;12.25;;;;;9.40;100956.00;;;;5011853;28;20201;-77
2022/11/19 06:28:50;;;;;;;16.33;10.77;;;;;9.40;100954.00;;;;5012611;28;20215;-77
2022/11/19 06:31:18;;;;;;;14.65;10.68;;;;;9.40;100947.00;;;;5013512;28;20196;-77
2022/11/19 06:33:45;;;;;;;16.42;11.48;;;;;9.40;100951.00;;;;5021928;28;20232;-77
2022/11/19 06:36:14;;;;;;;16.85;11.25;;;;;9.30;100952.00;;;;5011498;28;20585;-76
2022/11/19 06:38:42;;;;;;;15.88;11.57;;;;;9.30;100954.00;;;;5028626;28;20215;-76
2022/11/19 06:41:09;;;;;;;14.20;9.77;;;;;9.30;100955.00;;;;5022634;28;20212;-77
2022/11/19 06:43:36;;;;;;;16.67;10.85;;;;;9.30;100959.00;;;;5020201;28;20196;-77
2022/11/19 06:46:04;;;;;;;14.98;10.85;;;;;9.30;100963.00;;;;5013487;28;20224;-77
2022/11/19 06:48:31;;;;;;;19.67;12.23;;;;;9.30;100970.00;;;;5040215;28;20226;-77
2022/11/19 06:51:00;;;;;;;17.23;11.18;;;;;9.20;100976.00;;;;5022164;28;20224;-77
2022/11/19 06:53:29;;;;;;;17.25;11.95;;;;;9.20;100976.00;;;;5019568;28;20267;-77
2022/11/19 06:55:57;;;;;;;18.55;12.15;;;;;9.20;100965.00;;;;5015090;28;20208;-76
2022/11/19 06:58:25;;;;;;;15.45;10.95;;;;;9.20;100967.00;;;;5011535;28;20201;-77
2022/11/19 07:00:52;;;;;;;17.35;11.70;;;;;9.10;100983.00;;;;5019053;28;20224;-77
2022/11/19 07:03:20;;;;;;;17.15;11.15;;;;;9.10;100985.00;;;;5019704;28;20204;-77
2022/11/19 07:05:47;;;;;;;15.60;11.18;;;;;9.10;100991.00;;;;5021093;28;20593;-77
2022/11/19 07:08:15;;;;;;;14.68;10.13;;;;;9.10;100996.00;;;;5016067;28;20204;-77
2022/11/19 07:10:44;;;;;;;15.93;10.60;;;;;9.00;100999.00;;;;5016569;28;20212;-76
2022/11/19 07:13:12;;;;;;;15.95;11.38;;;;;9.00;101000.00;;;;5018707;28;20201;-77
2022/11/19 07:15:39;;;;;;;16.58;11.90;;;;;9.00;100997.00;;;;5016839;28;20208;-76
2022/11/19 07:18:07;;;;;;;16.98;11.15;;;;;9.00;100999.00;;;;5010811;28;20234;-76
2022/11/19 07:20:40;;;;;;;16.60;11.20;;;;;9.00;101004.00;;;;5022453;28;20204;-79
2022/11/19 07:23:10;;;;;;;17.40;10.75;;;;;8.90;101003.00;;;;5014492;28;20236;-77
2022/11/19 07:25:38;;;;;;;14.55;10.10;;;;;8.90;101011.00;;;;5014910;28;20641;-77
2022/11/19 07:28:07;;;;;;;16.83;11.50;;;;;8.90;101016.00;;;;5021109;28;20204;-78
2022/11/19 07:30:38;;;;;;;15.43;10.93;;;;;8.90;101011.00;;;;5019606;28;20197;-77
2022/11/19 07:33:05;;;;;;;16.15;9.95;;;;;8.90;101012.00;;;;5011266;28;20241;-76
2022/11/19 07:35:32;;;;;;;15.80;10.77;;;;;8.90;101023.00;;;;5011147;28;20204;-77
2022/11/19 07:37:59;;;;;;;16.00;11.35;;;;;8.90;101036.00;;;;5012451;28;20212;-76
2022/11/19 07:40:27;;;;;;;13.70;10.27;;;;;8.90;101030.00;;;;5022189;28;20204;-76
2022/11/19 07:42:53;;;;;;;14.52;10.07;;;;;8.90;101031.00;;;;5045566;28;20572;-77
2022/11/19 07:45:23;;;;;;;16.15;10.60;;;;;8.90;101039.00;;;;5033200;28;20220;-77
2022/11/19 07:47:50;;;;;;;16.40;11.15;;;;;8.90;101037.00;;;;5027835;28;20716;-76
2022/11/19 07:50:17;;;;;;;16.25;10.13;;;;;8.90;101036.00;;;;5032637;28;20687;-76
2022/11/19 07:52:45;;;;;;;16.20;10.95;;;;;8.90;101036.00;;;;5022245;28;20215;-77
2022/11/19 07:55:12;;;;;;;16.13;11.10;;;;;8.90;101041.00;;;;5013905;28;20201;-77
2022/11/19 07:57:40;;;;;;;17.25;11.07;;;;;8.90;101044.00;;;;5013328;28;20205;-77
2022/11/19 08:00:08;;;;;;;16.33;10.63;;;;;8.90;101046.00;;;;5016562;28;20204;-76
2022/11/19 08:02:38;;;;;;;14.75;10.10;;;;;8.90;101053.00;;;;5018300;28;20208;-77
2022/11/19 08:05:05;;;;;;;17.17;10.85;;;;;8.90;101046.00;;;;5023804;28;20717;-78
2022/11/19 08:07:33;;;;;;;16.48;11.38;;;;;8.90;101063.00;;;;5016767;28;20205;-76
2022/11/19 08:10:00;;;;;;;14.68;10.25;;;;;8.90;101068.00;;;;5025999;28;20219;-76
2022/11/19 08:12:28;;;;;;;16.35;11.48;;;;;8.90;101070.00;;;;5024825;28;20212;-77
2022/11/19 08:14:56;;;;;;;16.75;10.75;;;;;8.90;101066.00;;;;5014108;28;20201;-76
2022/11/19 08:20:10;;;;;;;15.20;10.75;;;;;8.90;101071.00;;;;5023208;28;20228;-76
2022/11/19 08:22:39;;;;;;;15.80;11.27;;;;;8.90;101069.00;;;;5008988;28;20659;-76
2022/11/19 08:25:07;;;;;;;14.90;10.48;;;;;8.90;101074.00;;;;5017793;28;20227;-75
2022/11/19 08:27:34;;;;;;;16.10;10.75;;;;;8.90;101077.00;;;;5029001;28;20200;-76
2022/11/19 08:30:02;;;;;;;14.93;10.00;;;;;8.90;101075.00;;;;5029958;28;20196;-76
2022/11/19 08:32:29;;;;;;;16.08;11.07;;;;;8.90;101080.00;;;;5015787;28;20197;-77
2022/11/19 08:34:57;;;;;;;14.32;9.77;;;;;8.90;101073.00;;;;5025332;28;20208;-77
2022/11/19 08:37:25;;;;;;;15.68;11.18;;;;;8.90;101090.00;;;;5028074;28;20204;-76
2022/11/19 08:39:52;;;;;;;14.73;10.02;;;;;8.90;101085.00;;;;5029948;28;20559;-77
2022/11/19 08:45:06;;;;;;;15.85;10.02;;;;;8.90;101088.00;;;;5021603;28;20244;-77
2022/11/19 08:47:33;;;;;;;13.82;9.35;;;;;8.90;101089.00;;;;5009549;28;20200;-77
2022/11/19 08:50:00;;;;;;;16.42;11.63;;;;;8.90;101088.00;;;;5010435;28;20212;-76
2022/11/19 08:52:29;;;;;;;13.77;9.23;;;;;8.90;101103.00;;;;5009649;28;20193;-77
2022/11/19 08:54:56;;;;;;;14.70;10.13;;;;;8.80;101090.00;;;;5020666;28;20211;-76
2022/11/19 08:57:24;;;;;;;14.80;10.05;;;;;8.80;101087.00;;;;5027725;28;20196;-76
2022/11/19 08:59:51;;;;;;;13.73;9.55;;;;;8.80;101100.00;;;;5008789;28;20201;-76
2022/11/19 09:02:19;;;;;;;15.65;10.70;;;;;8.80;101091.00;;;;5008031;28;20205;-75
2022/11/19 09:04:46;;;;;;;16.25;10.05;;;;;8.80;101094.00;;;;5007806;28;20212;-74
2022/11/19 09:07:13;;;;;;;17.17;10.82;;;;;8.80;101095.00;;;;5007504;28;20192;-75
2022/11/19 09:09:42;;;;;;;13.73;9.68;;;;;8.70;101099.00;;;;5006461;28;20195;-75
2022/11/19 09:12:10;;;;;;;16.35;11.27;;;;;8.70;101112.00;;;;5009281;28;20197;-75
2022/11/19 09:14:37;;;;;;;14.10;10.23;;;;;8.70;101103.00;;;;5018319;28;20193;-75
2022/11/19 09:17:05;;;;;;;14.80;10.02;;;;;8.70;101109.00;;;;5012854;28;20193;-75
2022/11/19 09:19:32;;;;;;;14.35;10.07;;;;;8.70;101111.00;;;;5012227;28;20205;-74
2022/11/19 09:22:00;;;;;;;16.75;10.52;;;;;8.70;101111.00;;;;5014964;28;20208;-75
2022/11/19 09:24:27;;;;;;;16.55;11.35;;;;;8.70;101119.00;;;;5008682;28;20208;-74
2022/11/19 09:26:55;;;;;;;14.50;10.45;;;;;8.60;101127.00;;;;5021784;28;20232;-75
2022/11/19 09:29:23;;;;;;;14.63;9.68;;;;;8.60;101134.00;;;;5011899;28;20228;-75
2022/11/19 09:31:50;;;;;;;13.93;9.57;;;;;8.60;101132.00;;;;5010221;28;20600;-75
2022/11/19 09:34:17;;;;;;;15.27;10.60;;;;;8.60;101135.00;;;;5008595;28;20224;-76
2022/11/19 09:36:45;;;;;;;14.43;10.13;;;;;8.60;101134.00;;;;5009769;28;20689;-75
2022/11/19 09:39:12;;;;;;;14.68;10.27;;;;;8.60;101148.00;;;;5013936;28;20200;-76
2022/11/19 09:41:47;;;;;;;14.02;9.35;;;;;8.50;101143.00;;;;5011798;28;20189;-75
2022/11/19 09:44:40;;;;;;;12.63;9.05;;;;;8.50;101147.00;;;;5028121;28;20211;-76
2022/11/19 09:47:19;;;;;;;13.85;9.32;;;;;8.50;101161.00;;;;5021240;28;20230;-75
2022/11/19 09:49:50;;;;;;;13.48;9.93;;;;;8.50;101165.00;;;;5028300;28;20196;-76
2022/11/19 09:52:20;;;;;;;12.63;9.68;;;;;8.50;101159.00;;;;5022616;28;20192;-76
2022/11/19 09:54:50;;;;;;;14.02;9.38;;;;;8.60;101152.00;;;;5009979;28;20235;-75
2022/11/19 09:57:26;;;;;;;12.85;9.52;;;;;8.50;101155.00;;;;5011860;28;20189;-76
2022/11/19 09:59:57;;;;;;;13.15;8.88;;;;;8.60;101148.00;;;;5025999;28;20203;-75
2022/11/19 10:02:24;;;;;;;13.20;9.05;;;;;8.60;101150.00;;;;5025928;28;20653;-75
2022/11/19 10:04:53;;;;;;;14.32;8.88;;;;;8.60;101153.00;;;;5007595;28;20204;-76
2022/11/19 10:07:31;;;;;;;11.32;8.25;;;;;8.70;101146.00;;;;5022128;28;20212;-75
2022/11/19 10:10:10;;;;;;;12.50;8.68;;;;;8.70;101155.00;;;;5023880;28;20227;-76
2022/11/19 10:13:10;;;;;;;12.07;8.60;;;;;8.60;101159.00;;;;5027150;28;20193;-76
2022/11/19 10:15:50;;;;;;;13.00;8.75;;;;;8.70;101148.00;;;;5018562;28;20677;-75
2022/11/19 10:18:26;;;;;;;12.55;8.88;;;;;8.70;101163.00;;;;5016208;28;20211;-76
2022/11/19 10:20:59;;;;;;;14.07;9.68;;;;;8.80;101165.00;;;;5008514;28;20197;-76
2022/11/19 10:23:37;;;;;;;11.60;7.88;;;;;8.80;101163.00;;;;5010069;28;20676;-76
2022/11/19 10:26:10;;;;;;;11.50;8.23;;;;;8.80;101170.00;;;;5012476;28;20701;-77
2022/11/19 10:28:40;;;;;;;11.73;8.52;;;;;8.90;101164.00;;;;5022298;28;20209;-77
2022/11/19 10:31:18;;;;;;;11.15;7.60;;;;;8.90;101166.00;;;;5023382;28;20211;-77
2022/11/19 10:33:52;;;;;;;13.73;9.32;;;;;8.90;101165.00;;;;5017405;28;20221;-76
2022/11/19 10:36:24;;;;;;;11.27;8.25;;;;;9.00;101176.00;;;;5023475;28;20203;-77
2022/11/19 10:38:56;;;;;;;11.45;8.38;;;;;9.00;101169.00;;;;5033497;28;20208;-77
2022/11/19 10:41:32;;;;;;;12.32;8.60;;;;;9.00;101179.00;;;;5017004;28;20200;-76
2022/11/19 10:44:06;;;;;;;10.68;7.88;;;;;9.10;101163.00;;;;5042535;28;20191;-76
2022/11/19 10:46:35;;;;;;;10.57;7.32;;;;;9.20;101157.00;;;;5009912;28;20235;-77
2022/11/19 10:49:02;;;;;;;11.88;7.82;;;;;9.20;101160.00;;;;5012187;28;20200;-77
2022/11/19 10:51:33;;;;;;;10.23;7.15;;;;;9.30;101164.00;;;;5019840;28;20236;-76
2022/11/19 10:54:04;;;;;;;12.27;7.95;;;;;9.40;101164.00;;;;5014731;28;20582;-76
2022/11/19 10:56:38;;;;;;;11.88;8.00;;;;;9.40;101164.00;;;;5015845;28;20619;-76
2022/11/19 10:59:11;;;;;;;10.38;7.57;;;;;9.40;101152.00;;;;5017371;28;20693;-76
2022/11/19 11:01:43;;;;;;;11.07;8.40;;;;;9.50;101153.00;;;;5010710;28;20211;-76
2022/11/19 11:04:17;;;;;;;10.85;7.70;;;;;9.60;101153.00;;;;5013991;28;20667;-75
2022/11/19 11:06:52;;;;;;;12.90;9.43;;;;;9.60;101152.00;;;;5045256;28;20238;-75
2022/11/19 11:09:30;;;;;;;9.73;7.35;;;;;9.60;101155.00;;;;5029934;28;20215;-75
2022/11/19 11:14:53;;;;;;;9.90;6.72;;;;;9.80;101147.00;;;;4991743;28;20262;-76
2022/11/19 11:17:25;;;;;;;11.02;7.45;;;;;9.80;101146.00;;;;5030074;28;20204;-76
2022/11/19 11:19:58;;;;;;;12.13;7.85;;;;;9.80;101147.00;;;;5030960;28;20204;-76
2022/11/19 11:22:26;;;;;;;10.45;7.55;;;;;9.90;101145.00;;;;5030090;28;20208;-76
2022/11/19 11:24:54;;;;;;;11.32;8.00;;;;;9.90;101141.00;;;;5028869;28;20671;-76
2022/11/19 11:27:24;;;;;;;9.15;7.20;;;;;10.00;101137.00;;;;5021090;28;20225;-75
2022/11/19 11:30:07;;;;;;;10.60;7.20;;;;;10.00;101135.00;;;;5024441;28;20207;-75
2022/11/19 11:32:35;;;;;;;11.48;7.68;;;;;10.10;101130.00;;;;5025548;28;20205;-75
2022/11/19 11:35:03;;;;;;;9.52;7.38;;;;;10.20;101132.00;;;;5024660;28;20211;-76
2022/11/19 11:37:32;;;;;;;11.75;7.35;;;;;10.20;101137.00;;;;5027557;28;20882;-76
2022/11/19 11:40:01;;;;;;;10.38;7.30;;;;;10.30;101127.00;;;;5025067;28;20200;-75
2022/11/19 11:42:29;;;;;;;10.38;6.50;;;;;10.30;101129.00;;;;5029842;28;20215;-76
2022/11/19 11:44:59;;;;;;;10.75;5.93;;;;;10.40;101133.00;;;;5024729;28;20201;-76
2022/11/19 11:47:29;;;;;;;10.20;7.55;;;;;10.40;101127.00;;;;5018852;28;20224;-76
2022/11/19 11:50:05;;;;;;;10.05;7.07;;;;;10.40;101130.00;;;;5031189;28;20334;-76
2022/11/19 11:52:39;;;;;;;10.00;6.93;;;;;10.50;101123.00;;;;5010510;28;20263;-74
2022/11/19 11:55:12;;;;;;;9.52;7.13;;;;;10.50;101125.00;;;;5042448;28;20202;-74
2022/11/19 11:57:52;;;;;;;8.35;6.68;;;;;10.40;101125.00;;;;5013900;28;20227;-74
2022/11/19 12:00:32;;;;;;;10.88;6.35;;;;;10.40;101127.00;;;;5018710;28;20207;-74
2022/11/19 12:03:01;;;;;;;8.77;6.55;;;;;10.50;101135.00;;;;5023448;28;20211;-74
2022/11/19 12:05:39;;;;;;;8.68;6.90;;;;;10.50;101126.00;;;;5035170;28;20189;-74
2022/11/19 12:08:11;;;;;;;9.30;6.72;;;;;10.50;101133.00;;;;5025641;28;20200;-74
2022/11/19 12:10:46;;;;;;;8.20;6.28;;;;;10.40;101139.00;;;;5017475;28;20234;-74
2022/11/19 12:13:49;;;;;;;9.00;6.43;;;;;10.30;101138.00;;;;5015987;28;20192;-75
2022/11/19 12:16:44;;;;;;;8.32;6.47;;;;;10.40;101132.00;;;;5029289;28;20214;-75
2022/11/19 12:19:28;;;;;;;9.23;6.60;;;;;10.30;101139.00;;;;4991001;28;20201;-74
2022/11/19 12:22:04;;;;;;;9.13;6.20;;;;;10.40;101125.00;;;;5022356;28;20197;-75
2022/11/19 12:24:53;;;;;;;8.60;6.25;;;;;10.30;101126.00;;;;5013174;28;20193;-76
2022/11/19 12:27:28;;;;;;;9.05;6.38;;;;;10.40;101128.00;;;;5010926;28;20729;-76
2022/11/19 12:30:05;;;;;;;7.95;5.82;;;;;10.40;101120.00;;;;5015427;28;20196;-76
2022/11/19 12:33:03;;;;;;;8.30;5.90;;;;;10.40;101128.00;;;;5016676;28;20197;-76
2022/11/19 12:35:42;;;;;;;7.97;6.10;;;;;10.40;101125.00;;;;5014639;28;20582;-76
2022/11/19 12:38:25;;;;;;;9.05;6.63;;;;;10.40;101135.00;;;;5021785;28;20192;-76
2022/11/19 12:41:01;;;;;;;8.10;5.60;;;;;10.40;101142.00;;;;5025299;28;20204;-76